Time;durP1;ratioP1;P1;durP2;ratioP2;P2;SDS_P1;SDS_P2;PMS_P1;PMS_P2;Temp;Humidity;BMP_temperature;BMP_pressure;BME280_temperature;BME280_humidity;BME280_pressure;Samples;Min_cycle;Max_cycle;Signal;HPM_P1;HPM_P2
2022/01/06 00:01:54;;;;;;;1.73;0.40;;;22.10;55.20;;;;;;4937260;28;96179;-66
2022/01/06 00:04:25;;;;;;;1.20;0.50;;;22.20;55.20;;;;;;4946602;28;95707;-65
2022/01/06 00:06:55;;;;;;;0.43;0.40;;;22.20;55.70;;;;;;4945834;28;95893;-57
2022/01/06 00:09:26;;;;;;;0.40;0.40;;;22.20;54.90;;;;;;4945430;28;96903;-65
2022/01/06 00:11:58;;;;;;;0.60;0.60;;;22.20;54.90;;;;;;4943611;28;96083;-58
2022/01/06 00:25:32;;;;;;;0.60;0.50;;;22.30;54.50;;;;;;4924938;28;95802;-60
2022/01/06 00:28:02;;;;;;;1.10;0.50;;;22.30;54.30;;;;;;4924054;28;98180;-60
2022/01/06 00:30:31;;;;;;;1.13;0.52;;;22.30;54.20;;;;;;4917334;28;96603;-59
2022/01/06 00:33:02;;;;;;;1.45;0.50;;;22.40;54.20;;;;;;4956201;28;96075;-59
2022/01/06 00:35:34;;;;;;;0.63;0.45;;;22.40;54.20;;;;;;4945637;28;96100;-65
2022/01/06 00:38:07;;;;;;;1.58;0.50;;;22.40;54.10;;;;;;4943578;28;96817;-59
2022/01/06 00:40:41;;;;;;;0.68;0.63;;;22.40;54.10;;;;;;4940749;28;96254;-65
2022/01/06 00:43:12;;;;;;;1.52;0.63;;;22.40;54.20;;;;;;4942846;28;96593;-65
2022/01/06 00:45:42;;;;;;;0.50;0.45;;;22.30;54.10;;;;;;4934261;28;96084;-64
2022/01/06 00:48:14;;;;;;;0.90;0.52;;;22.30;54.30;;;;;;4938940;28;97750;-60
2022/01/06 00:50:46;;;;;;;1.02;0.60;;;22.30;54.30;;;;;;4942341;28;96485;-61
2022/01/06 00:53:16;;;;;;;;;;;22.30;54.50;;;;;;4943822;28;95571;-66
2022/01/06 00:55:47;;;;;;;0.43;0.43;;;22.30;54.40;;;;;;4943334;28;96034;-65
2022/01/06 00:58:19;;;;;;;0.45;0.45;;;22.30;54.30;;;;;;4931196;28;96096;-59
2022/01/06 01:00:50;;;;;;;1.00;0.80;;;22.30;54.50;;;;;;4935634;28;96925;-65
2022/01/06 01:03:22;;;;;;;1.10;0.50;;;22.20;54.40;;;;;;4942219;28;96750;-58
2022/01/06 01:05:56;;;;;;;0.40;0.40;;;22.20;54.40;;;;;;4943428;28;96282;-65
2022/01/06 01:08:27;;;;;;;1.88;0.52;;;22.30;54.40;;;;;;4943193;28;96469;-61
2022/01/06 01:10:59;;;;;;;0.73;0.73;;;22.40;54.30;;;;;;4957990;28;96575;-66
2022/01/06 01:13:32;;;;;;;0.82;0.40;;;22.40;54.50;;;;;;4956097;28;97698;-65
2022/01/06 01:16:21;;;;;;;1.58;0.55;;;22.40;54.30;;;;;;4937010;28;98792;-65
2022/01/06 01:18:59;;;;;;;2.47;0.43;;;22.40;54.30;;;;;;4944229;28;95989;-60
2022/01/06 01:21:31;;;;;;;0.95;0.60;;;22.40;54.40;;;;;;4955969;28;96479;-65
2022/01/06 01:24:02;;;;;;;2.25;0.70;;;22.40;54.50;;;;;;4942266;28;95993;-60
2022/01/06 01:26:34;;;;;;;2.08;0.70;;;22.40;54.40;;;;;;4944307;28;96856;-62
2022/01/06 01:29:15;;;;;;;0.75;0.60;;;22.60;54.50;;;;;;4942921;28;95731;-65
2022/01/06 01:31:51;;;;;;;0.45;0.45;;;22.80;54.80;;;;;;4935002;28;96363;-58
2022/01/06 01:34:26;;;;;;;2.10;0.60;;;23.10;54.80;;;;;;4940787;28;96448;-58
2022/01/06 01:36:57;;;;;;;0.50;0.50;;;23.30;54.80;;;;;;4941803;28;96337;-65
2022/01/06 01:39:28;;;;;;;0.40;0.40;;;23.50;54.80;;;;;;4942066;28;96457;-59
2022/01/06 01:41:59;;;;;;;0.80;0.50;;;23.70;54.70;;;;;;4942695;28;96596;-63
2022/01/06 01:44:29;;;;;;;0.40;0.40;;;23.90;54.70;;;;;;4942922;28;95804;-64
2022/01/06 01:47:08;;;;;;;1.45;0.70;;;24.10;54.60;;;;;;4935757;28;95493;-62
2022/01/06 01:49:51;;;;;;;0.40;0.40;;;24.20;54.60;;;;;;4940572;28;96071;-59
2022/01/06 01:52:23;;;;;;;0.50;0.50;;;24.40;54.60;;;;;;4942532;28;96479;-62
2022/01/06 01:54:54;;;;;;;1.45;0.47;;;24.50;54.60;;;;;;4941614;28;96849;-64
2022/01/06 01:57:27;;;;;;;0.43;0.38;;;24.60;54.60;;;;;;4931552;28;95824;-59
2022/01/06 01:59:58;;;;;;;0.50;0.40;;;24.70;54.50;;;;;;4937982;28;95947;-58
2022/01/06 02:02:41;;;;;;;0.63;0.43;;;24.80;54.70;;;;;;4940659;28;102916;-64
2022/01/06 02:05:12;;;;;;;1.42;0.50;;;24.80;54.60;;;;;;4942685;28;96810;-59
2022/01/06 02:07:43;;;;;;;0.30;0.30;;;24.80;53.60;;;;;;4943937;28;96475;-64
2022/01/06 02:10:14;;;;;;;0.30;0.30;;;24.70;52.70;;;;;;4942808;28;95791;-64
2022/01/06 02:12:48;;;;;;;0.40;0.40;;;24.60;52.10;;;;;;4941948;28;96166;-61
2022/01/06 02:15:18;;;;;;;0.50;0.40;;;24.60;52.10;;;;;;4943824;28;95913;-64
2022/01/06 02:17:51;;;;;;;0.40;0.40;;;24.50;52.10;;;;;;4956450;28;95501;-59
2022/01/06 02:20:25;;;;;;;0.35;0.35;;;24.50;51.80;;;;;;4943203;28;95962;-59
2022/01/06 02:22:57;;;;;;;0.32;0.32;;;24.50;51.50;;;;;;4943077;28;96620;-59
2022/01/06 02:25:31;;;;;;;1.15;0.60;;;24.50;51.40;;;;;;4942797;28;96110;-64
2022/01/06 02:28:03;;;;;;;0.40;0.40;;;24.50;51.40;;;;;;4940872;28;96306;-58
2022/01/06 02:30:35;;;;;;;0.50;0.50;;;24.60;51.10;;;;;;4934774;28;95760;-59
2022/01/06 02:33:08;;;;;;;0.45;0.45;;;24.60;51.20;;;;;;4942544;28;96701;-59
2022/01/06 02:35:39;;;;;;;1.05;0.40;;;24.60;51.20;;;;;;4944710;28;95755;-62
2022/01/06 02:38:10;;;;;;;0.40;0.40;;;24.60;51.20;;;;;;4961079;28;95396;-63
2022/01/06 02:40:40;;;;;;;0.20;0.20;;;24.60;51.10;;;;;;4946111;28;96075;-59
2022/01/06 02:43:13;;;;;;;0.40;0.40;;;24.60;51.00;;;;;;4944794;28;97716;-60
2022/01/06 02:45:43;;;;;;;0.75;0.55;;;24.60;51.10;;;;;;4937386;28;96253;-59
2022/01/06 02:48:15;;;;;;;0.43;0.43;;;24.70;50.80;;;;;;4945345;28;96025;-61
2022/01/06 02:50:49;;;;;;;0.40;0.40;;;24.80;50.80;;;;;;4944548;28;95992;-57
2022/01/06 02:53:20;;;;;;;1.73;0.43;;;24.90;50.90;;;;;;4944722;28;95332;-63
2022/01/06 02:55:53;;;;;;;0.30;0.30;;;24.90;50.50;;;;;;4945984;28;95661;-61
2022/01/06 02:58:44;;;;;;;0.50;0.50;;;25.00;50.30;;;;;;4936324;28;96672;-61
2022/01/06 03:01:15;;;;;;;0.30;0.30;;;25.00;50.00;;;;;;4940085;28;98421;-64
2022/01/06 03:03:46;;;;;;;0.75;0.75;;;25.10;50.00;;;;;;4945579;28;96480;-65
2022/01/06 03:06:18;;;;;;;1.17;0.50;;;25.10;49.70;;;;;;4944168;28;95476;-65
2022/01/06 03:08:48;;;;;;;1.25;0.50;;;25.10;49.40;;;;;;4946499;28;96756;-65
2022/01/06 03:11:25;;;;;;;0.40;0.40;;;25.10;49.30;;;;;;4947714;28;95943;-65
2022/01/06 03:13:56;;;;;;;0.50;0.40;;;25.10;49.10;;;;;;4946121;28;96925;-65
2022/01/06 03:16:26;;;;;;;0.30;0.30;;;25.20;49.00;;;;;;4936646;28;96647;-66
2022/01/06 03:18:58;;;;;;;0.30;0.30;;;25.20;48.70;;;;;;4945896;28;97198;-65
2022/01/06 03:21:31;;;;;;;0.68;0.50;;;25.30;48.50;;;;;;4963618;28;95998;-66
2022/01/06 03:24:03;;;;;;;0.45;0.40;;;25.30;48.30;;;;;;4946537;28;96349;-65
2022/01/06 03:26:34;;;;;;;0.82;0.50;;;25.30;48.10;;;;;;4946706;28;95832;-67
2022/01/06 03:29:05;;;;;;;1.05;0.50;;;25.40;48.00;;;;;;4946889;28;96157;-65
2022/01/06 03:31:37;;;;;;;0.50;0.50;;;25.30;47.60;;;;;;4930125;28;95758;-61
2022/01/06 03:34:08;;;;;;;0.40;0.40;;;25.30;47.50;;;;;;4928012;28;96065;-66
2022/01/06 03:36:39;;;;;;;0.30;0.30;;;25.30;47.30;;;;;;4928763;28;96410;-68
2022/01/06 03:39:09;;;;;;;0.40;0.40;;;25.30;47.20;;;;;;4927922;28;96148;-61
2022/01/06 03:41:39;;;;;;;1.52;0.60;;;25.30;47.00;;;;;;4926911;28;96223;-66
2022/01/06 03:44:09;;;;;;;0.47;0.43;;;25.30;47.00;;;;;;4927240;28;96773;-66
2022/01/06 03:46:39;;;;;;;0.75;0.30;;;25.20;46.60;;;;;;4919268;28;96088;-64
2022/01/06 03:49:10;;;;;;;1.02;0.68;;;25.20;46.50;;;;;;4926672;28;95886;-60
2022/01/06 03:51:42;;;;;;;0.50;0.50;;;25.20;46.50;;;;;;4927997;28;96392;-61
2022/01/06 03:54:13;;;;;;;0.57;0.57;;;25.20;46.40;;;;;;4926878;28;96860;-66
2022/01/06 03:56:47;;;;;;;0.70;0.60;;;25.00;46.30;;;;;;4920372;28;97129;-65
2022/01/06 03:59:20;;;;;;;0.52;0.52;;;25.00;46.40;;;;;;4919574;28;96096;-65
2022/01/06 04:01:51;;;;;;;0.50;0.50;;;25.00;46.20;;;;;;4930725;28;95811;-62
2022/01/06 04:04:23;;;;;;;1.17;0.57;;;24.90;46.10;;;;;;4944303;28;96590;-59
2022/01/06 04:06:53;;;;;;;0.38;0.38;;;24.90;46.60;;;;;;4957185;28;95400;-64
2022/01/06 04:09:25;;;;;;;0.73;0.60;;;24.90;46.00;;;;;;4945299;28;96547;-65
2022/01/06 04:11:56;;;;;;;0.50;0.50;;;24.90;46.00;;;;;;4946286;28;95696;-57
2022/01/06 04:14:27;;;;;;;1.45;0.50;;;24.90;46.10;;;;;;4946835;28;97034;-64
2022/01/06 04:16:58;;;;;;;1.15;0.80;;;24.90;46.10;;;;;;4937595;28;97939;-66
2022/01/06 04:19:30;;;;;;;0.40;0.40;;;24.80;46.10;;;;;;4945395;28;96078;-65
2022/01/06 04:22:01;;;;;;;0.45;0.45;;;24.80;46.00;;;;;;4960066;28;95806;-67
2022/01/06 04:24:34;;;;;;;1.10;0.30;;;24.80;45.80;;;;;;4942107;28;96484;-64
2022/01/06 04:27:05;;;;;;;0.47;0.47;;;24.70;45.70;;;;;;4945386;28;97374;-60
2022/01/06 04:29:35;;;;;;;0.60;0.60;;;24.60;45.90;;;;;;4945672;28;96339;-64
2022/01/06 04:32:05;;;;;;;0.60;0.60;;;24.60;46.10;;;;;;4924182;28;95831;-58
2022/01/06 04:34:35;;;;;;;0.40;0.40;;;24.60;46.20;;;;;;4925926;28;96460;-58
2022/01/06 04:37:07;;;;;;;0.40;0.40;;;24.60;46.10;;;;;;4919359;28;96268;-58
2022/01/06 04:39:41;;;;;;;0.68;0.55;;;24.60;46.30;;;;;;4922692;28;96064;-64
2022/01/06 04:42:13;;;;;;;0.90;0.90;;;24.60;46.20;;;;;;4954381;28;95876;-59
2022/01/06 04:44:43;;;;;;;;;;;24.60;44.30;;;;;;4926168;28;96927;-61
2022/01/06 04:47:13;;;;;;;0.70;0.70;;;24.60;46.40;;;;;;4927914;28;98641;-65
2022/01/06 04:49:46;;;;;;;0.80;0.80;;;24.60;46.40;;;;;;4935625;28;95707;-61
2022/01/06 04:52:18;;;;;;;0.60;0.60;;;24.50;46.30;;;;;;4936598;28;95348;-58
2022/01/06 04:54:50;;;;;;;0.68;0.68;;;24.50;46.40;;;;;;4933323;28;96163;-65
2022/01/06 04:57:23;;;;;;;0.50;0.50;;;24.50;44.50;;;;;;4920071;28;95445;-66
2022/01/06 04:59:54;;;;;;;0.47;0.47;;;24.40;46.40;;;;;;4928487;28;96178;-61
2022/01/06 05:02:29;;;;;;;1.70;0.50;;;24.40;46.50;;;;;;4919624;28;96106;-59
2022/01/06 05:05:01;;;;;;;0.50;0.50;;;24.40;46.50;;;;;;4922141;28;96172;-65
2022/01/06 05:07:34;;;;;;;;;;;24.50;46.50;;;;;;4926990;28;95739;-65
2022/01/06 05:10:09;;;;;;;0.50;0.50;;;24.50;46.50;;;;;;4925606;28;95845;-61
2022/01/06 05:12:42;;;;;;;0.63;0.63;;;24.50;46.40;;;;;;4925103;28;95735;-64
2022/01/06 05:15:14;;;;;;;0.70;0.70;;;24.50;46.40;;;;;;4917000;28;96666;-64
2022/01/06 05:17:45;;;;;;;1.05;0.80;;;24.50;46.30;;;;;;4923979;28;96141;-61
2022/01/06 05:20:20;;;;;;;0.65;0.65;;;24.50;46.40;;;;;;4915637;28;95449;-62
2022/01/06 05:22:54;;;;;;;1.38;0.63;;;24.50;46.50;;;;;;4925406;28;95835;-61
2022/01/06 05:25:28;;;;;;;0.88;0.70;;;24.50;46.50;;;;;;4925284;28;96728;-66
2022/01/06 05:27:58;;;;;;;0.60;0.60;;;24.50;46.50;;;;;;4925521;28;96373;-65
2022/01/06 05:30:30;;;;;;;1.08;0.95;;;24.50;46.50;;;;;;4917008;28;95890;-62
2022/01/06 05:33:02;;;;;;;0.63;0.63;;;24.50;47.10;;;;;;4942991;28;96081;-65
2022/01/06 05:35:33;;;;;;;0.82;0.82;;;24.50;46.40;;;;;;4944294;28;96138;-62
2022/01/06 05:38:04;;;;;;;3.95;0.70;;;24.50;46.40;;;;;;4942182;28;96006;-64
2022/01/06 05:40:36;;;;;;;0.70;0.70;;;24.50;46.40;;;;;;4945338;28;95285;-64
2022/01/06 05:43:12;;;;;;;0.60;0.60;;;24.50;46.40;;;;;;4944222;28;95839;-64
2022/01/06 05:45:42;;;;;;;3.55;0.80;;;24.40;46.60;;;;;;4934375;28;96090;-64
2022/01/06 05:48:13;;;;;;;0.57;0.57;;;24.50;46.90;;;;;;4943874;28;95730;-63
2022/01/06 05:50:48;;;;;;;1.13;0.77;;;24.50;46.80;;;;;;4944191;28;95321;-64
2022/01/06 05:53:20;;;;;;;1.02;0.68;;;24.50;46.90;;;;;;4943935;28;96086;-65
2022/01/06 05:55:51;;;;;;;0.73;0.70;;;24.50;46.90;;;;;;4943891;28;96032;-64
2022/01/06 05:58:23;;;;;;;0.60;0.60;;;24.50;46.90;;;;;;4928770;28;96240;-60
2022/01/06 06:00:55;;;;;;;0.68;0.68;;;24.50;46.70;;;;;;4948215;28;96542;-62
2022/01/06 06:03:27;;;;;;;0.55;0.55;;;24.50;46.70;;;;;;4940544;28;96009;-65
2022/01/06 06:05:58;;;;;;;0.57;0.57;;;24.50;46.70;;;;;;4943463;28;97125;-60
2022/01/06 06:08:30;;;;;;;0.45;0.45;;;24.50;46.80;;;;;;4943015;28;97767;-65
2022/01/06 06:11:01;;;;;;;0.70;0.70;;;24.50;46.70;;;;;;4942428;28;96743;-65
2022/01/06 06:13:32;;;;;;;0.47;0.47;;;24.50;46.80;;;;;;4944527;28;95787;-63
2022/01/06 06:16:02;;;;;;;1.02;0.93;;;24.50;46.70;;;;;;4935977;28;96097;-64
2022/01/06 06:18:34;;;;;;;0.70;0.70;;;24.50;46.70;;;;;;4945868;28;95738;-64
2022/01/06 06:21:08;;;;;;;0.70;0.70;;;24.50;46.60;;;;;;4945279;28;95742;-65
2022/01/06 06:23:39;;;;;;;1.38;0.52;;;24.40;46.40;;;;;;4946667;28;96238;-65
2022/01/06 06:26:11;;;;;;;0.70;0.70;;;24.50;46.80;;;;;;4947742;28;96459;-65
2022/01/06 06:28:43;;;;;;;0.85;0.57;;;24.40;46.50;;;;;;4944126;28;96149;-65
2022/01/06 06:31:13;;;;;;;;;;;24.40;46.40;;;;;;4938415;28;96689;-65
2022/01/06 06:33:45;;;;;;;1.00;0.65;;;24.40;46.40;;;;;;4947331;28;96975;-61
2022/01/06 06:36:17;;;;;;;2.55;0.90;;;24.40;46.40;;;;;;4944094;28;97622;-63
2022/01/06 06:38:47;;;;;;;0.65;0.60;;;24.40;46.30;;;;;;4945769;28;96031;-64
2022/01/06 06:41:17;;;;;;;1.02;0.70;;;24.40;46.30;;;;;;4956813;28;96929;-63
2022/01/06 06:43:46;;;;;;;1.00;1.00;;;24.40;46.40;;;;;;4960938;28;96076;-64
2022/01/06 06:46:16;;;;;;;0.57;0.57;;;24.40;46.20;;;;;;4938408;28;98162;-63
2022/01/06 06:48:47;;;;;;;0.70;0.70;;;24.40;46.20;;;;;;4946020;28;96329;-63
2022/01/06 06:51:20;;;;;;;0.70;0.70;;;24.30;46.10;;;;;;4961235;28;96491;-61
2022/01/06 06:53:51;;;;;;;0.70;0.70;;;24.30;46.10;;;;;;4945319;28;95870;-60
2022/01/06 06:56:22;;;;;;;0.90;0.80;;;24.30;46.10;;;;;;4942731;28;96158;-61
2022/01/06 06:58:53;;;;;;;0.50;0.50;;;24.30;46.10;;;;;;4930175;28;95897;-63
2022/01/06 07:01:25;;;;;;;0.77;0.55;;;24.40;46.10;;;;;;4936473;28;95945;-60
2022/01/06 07:03:57;;;;;;;0.70;0.70;;;24.30;46.00;;;;;;4946942;28;95736;-63
2022/01/06 07:06:27;;;;;;;0.70;0.70;;;24.30;45.90;;;;;;4944887;28;96241;-63
2022/01/06 07:08:58;;;;;;;0.65;0.60;;;24.30;45.90;;;;;;4945140;28;96182;-62
2022/01/06 07:11:29;;;;;;;0.50;0.50;;;24.30;45.90;;;;;;4946248;28;95773;-64
2022/01/06 07:14:00;;;;;;;0.63;0.63;;;24.30;46.00;;;;;;4940871;28;95895;-60
2022/01/06 07:16:31;;;;;;;0.60;0.60;;;24.40;45.90;;;;;;4933190;28;97569;-63
2022/01/06 07:19:03;;;;;;;0.63;0.60;;;24.30;45.90;;;;;;4944488;28;96379;-63
2022/01/06 07:21:34;;;;;;;0.60;0.60;;;24.40;46.30;;;;;;4945240;28;96004;-63
2022/01/06 07:24:05;;;;;;;0.50;0.50;;;24.50;46.70;;;;;;4944730;28;96266;-63
2022/01/06 07:26:36;;;;;;;0.70;0.70;;;24.60;46.90;;;;;;4943833;28;97612;-61
2022/01/06 07:29:06;;;;;;;0.60;0.60;;;24.70;47.60;;;;;;4944012;28;96049;-63
2022/01/06 07:31:36;;;;;;;0.50;0.50;;;24.80;47.00;;;;;;4935200;28;95823;-63
2022/01/06 07:34:06;;;;;;;0.80;0.80;;;24.90;47.10;;;;;;4942757;28;96562;-63
2022/01/06 07:36:38;;;;;;;0.70;0.70;;;25.00;47.10;;;;;;4943496;28;96425;-63
2022/01/06 07:39:09;;;;;;;0.50;0.50;;;25.10;47.20;;;;;;4944071;28;97074;-62
2022/01/06 07:41:39;;;;;;;0.77;0.47;;;25.20;47.30;;;;;;4944374;28;95225;-64
2022/01/06 07:44:08;;;;;;;0.60;0.60;;;25.20;47.40;;;;;;4944077;28;95474;-64
2022/01/06 07:46:41;;;;;;;0.50;0.50;;;25.20;47.40;;;;;;4937201;28;96045;-63
2022/01/06 07:49:13;;;;;;;0.50;0.50;;;25.30;47.50;;;;;;4944051;28;96708;-65
2022/01/06 07:51:45;;;;;;;0.43;0.43;;;25.40;47.60;;;;;;4958942;28;96220;-60
2022/01/06 07:54:17;;;;;;;0.60;0.60;;;25.40;47.60;;;;;;4944033;28;95817;-64
2022/01/06 07:56:50;;;;;;;0.52;0.52;;;25.50;47.70;;;;;;4937922;28;96293;-64
2022/01/06 07:59:23;;;;;;;0.60;0.60;;;25.50;47.70;;;;;;4935338;28;97197;-64
2022/01/06 08:01:54;;;;;;;0.60;0.60;;;25.50;47.70;;;;;;4936491;28;96134;-65
2022/01/06 08:04:25;;;;;;;0.50;0.50;;;25.60;47.80;;;;;;4944548;28;95739;-60
2022/01/06 08:06:55;;;;;;;0.50;0.50;;;25.60;47.80;;;;;;4944228;28;96514;-59
2022/01/06 08:09:25;;;;;;;0.43;0.43;;;25.60;47.80;;;;;;4945009;28;96008;-60
2022/01/06 08:11:56;;;;;;;0.60;0.60;;;25.70;47.80;;;;;;4944947;28;95798;-64
2022/01/06 08:14:27;;;;;;;;;;;25.70;47.80;;;;;;4944107;28;96369;-64
2022/01/06 08:16:59;;;;;;;0.47;0.47;;;25.70;47.90;;;;;;4935815;28;96552;-65
2022/01/06 08:19:30;;;;;;;0.63;0.60;;;25.80;48.00;;;;;;4943373;28;96405;-63
2022/01/06 08:22:02;;;;;;;0.40;0.40;;;25.80;48.00;;;;;;4943599;28;96048;-64
2022/01/06 08:24:33;;;;;;;0.57;0.57;;;25.80;48.00;;;;;;4943529;28;95639;-65
2022/01/06 08:27:08;;;;;;;0.63;0.63;;;25.90;48.00;;;;;;4943855;28;96680;-60
2022/01/06 08:29:39;;;;;;;0.40;0.40;;;25.90;48.10;;;;;;4956764;28;96092;-64
2022/01/06 08:32:13;;;;;;;0.50;0.50;;;25.90;48.00;;;;;;4936032;28;95901;-65
2022/01/06 08:34:45;;;;;;;0.50;0.50;;;25.90;48.00;;;;;;4944200;28;96052;-65
2022/01/06 08:37:17;;;;;;;0.73;0.50;;;25.90;48.00;;;;;;4940881;28;98429;-65
2022/01/06 08:39:47;;;;;;;0.60;0.60;;;26.00;48.10;;;;;;4944686;28;95728;-65
2022/01/06 08:42:17;;;;;;;0.52;0.52;;;26.00;48.10;;;;;;4941848;28;95982;-63
2022/01/06 08:44:47;;;;;;;0.50;0.50;;;26.00;48.10;;;;;;4942822;28;95707;-64
2022/01/06 08:47:19;;;;;;;0.63;0.63;;;26.10;48.10;;;;;;4935989;28;97705;-64
2022/01/06 08:49:50;;;;;;;0.60;0.60;;;26.10;48.20;;;;;;4940941;28;97058;-64
2022/01/06 08:52:22;;;;;;;0.63;0.63;;;26.10;48.10;;;;;;4944173;28;95660;-64
2022/01/06 08:54:53;;;;;;;0.60;0.60;;;26.10;48.80;;;;;;4944409;28;96202;-59
2022/01/06 08:57:25;;;;;;;0.65;0.65;;;26.10;48.10;;;;;;4935860;28;101624;-64
2022/01/06 08:59:57;;;;;;;0.68;0.68;;;26.20;48.20;;;;;;4938640;28;96504;-65
2022/01/06 09:02:28;;;;;;;0.75;0.75;;;26.20;48.20;;;;;;4918217;28;96732;-66
2022/01/06 09:05:02;;;;;;;0.45;0.45;;;26.20;48.20;;;;;;4920745;28;96028;-64
2022/01/06 09:07:35;;;;;;;0.60;0.60;;;26.20;48.30;;;;;;4922675;28;96467;-65
2022/01/06 09:10:06;;;;;;;0.50;0.50;;;26.30;48.40;;;;;;4924427;28;96224;-64
2022/01/06 09:12:38;;;;;;;0.50;0.50;;;26.20;48.40;;;;;;4923336;28;95698;-65
2022/01/06 09:15:10;;;;;;;0.60;0.60;;;26.30;48.50;;;;;;4921188;28;96949;-64
2022/01/06 09:17:41;;;;;;;0.45;0.45;;;26.30;48.70;;;;;;4940969;28;96141;-64
2022/01/06 09:20:13;;;;;;;0.60;0.60;;;26.30;48.70;;;;;;4942019;28;95318;-64
2022/01/06 09:22:45;;;;;;;0.60;0.60;;;26.30;48.80;;;;;;4941102;28;95712;-64
2022/01/06 09:25:16;;;;;;;0.73;0.70;;;26.40;48.90;;;;;;4942398;28;97582;-65
2022/01/06 09:27:47;;;;;;;0.73;0.73;;;26.40;49.00;;;;;;4943107;28;96399;-64
2022/01/06 09:30:19;;;;;;;0.60;0.60;;;26.40;49.00;;;;;;4942499;28;97139;-64
2022/01/06 09:32:53;;;;;;;0.60;0.60;;;26.40;49.00;;;;;;4941522;28;97353;-65
2022/01/06 09:35:27;;;;;;;0.75;0.75;;;26.40;49.10;;;;;;4942205;28;95793;-64
2022/01/06 09:37:57;;;;;;;0.52;0.52;;;26.40;49.20;;;;;;4939374;28;96503;-65
2022/01/06 09:40:27;;;;;;;0.60;0.60;;;26.40;49.20;;;;;;4942242;28;96172;-64
2022/01/06 09:42:57;;;;;;;0.53;0.53;;;26.40;49.30;;;;;;4940912;28;96126;-64
2022/01/06 09:45:32;;;;;;;0.70;0.70;;;26.40;49.30;;;;;;4950193;28;95850;-66
2022/01/06 09:48:06;;;;;;;0.43;0.43;;;26.40;49.40;;;;;;4947043;28;96674;-65
2022/01/06 09:50:42;;;;;;;0.40;0.40;;;26.40;49.40;;;;;;4946582;28;95982;-65
2022/01/06 09:53:14;;;;;;;1.52;0.60;;;26.40;49.50;;;;;;4946343;28;98826;-65
2022/01/06 09:55:46;;;;;;;1.48;0.50;;;26.40;49.50;;;;;;4943582;28;95625;-64
2022/01/06 09:58:25;;;;;;;0.98;0.65;;;26.40;49.90;;;;;;4936177;28;97322;-65
2022/01/06 10:00:58;;;;;;;0.52;0.52;;;26.40;50.10;;;;;;4934653;28;96816;-64
2022/01/06 10:03:39;;;;;;;0.70;0.70;;;26.40;50.20;;;;;;4944017;28;96309;-65
2022/01/06 10:06:21;;;;;;;0.77;0.77;;;26.30;50.90;;;;;;4946367;28;96279;-65
2022/01/06 10:08:56;;;;;;;0.80;0.60;;;26.20;51.60;;;;;;4945696;28;96528;-65
2022/01/06 10:11:31;;;;;;;0.77;0.75;;;26.10;51.60;;;;;;4943903;28;96346;-65
2022/01/06 10:14:17;;;;;;;1.50;0.77;;;26.10;52.10;;;;;;4943748;28;96993;-65
2022/01/06 10:16:50;;;;;;;1.02;0.70;;;26.00;52.40;;;;;;4936760;28;95423;-65
2022/01/06 10:19:22;;;;;;;1.13;0.70;;;25.90;52.70;;;;;;4945267;28;96543;-65
2022/01/06 10:22:00;;;;;;;0.52;0.52;;;25.90;53.00;;;;;;4946599;28;97499;-65
2022/01/06 10:24:32;;;;;;;2.67;0.95;;;25.90;53.20;;;;;;4943551;28;95711;-65
2022/01/06 10:27:09;;;;;;;1.90;0.77;;;25.90;53.20;;;;;;4946361;28;96181;-65
2022/01/06 10:29:48;;;;;;;0.70;0.55;;;26.00;53.20;;;;;;4945605;28;96451;-65
2022/01/06 10:32:21;;;;;;;1.17;0.70;;;25.90;53.20;;;;;;4935890;28;96195;-66
2022/01/06 10:35:02;;;;;;;0.60;0.60;;;25.90;53.40;;;;;;4944442;28;98210;-65
2022/01/06 10:37:44;;;;;;;1.85;0.80;;;25.90;53.50;;;;;;4943451;28;96158;-65
2022/01/06 10:40:19;;;;;;;0.88;0.60;;;26.00;53.60;;;;;;4945558;28;96962;-59
2022/01/06 10:42:52;;;;;;;2.38;0.80;;;25.90;53.40;;;;;;4948753;28;96043;-58
2022/01/06 10:45:27;;;;;;;1.08;0.60;;;25.80;52.80;;;;;;4937478;28;95930;-67
2022/01/06 10:48:03;;;;;;;1.27;0.70;;;25.70;54.00;;;;;;4946450;28;96128;-66
2022/01/06 10:50:59;;;;;;;1.13;0.70;;;25.70;54.30;;;;;;4945113;28;96494;-67
2022/01/06 10:53:32;;;;;;;2.00;0.60;;;25.70;54.40;;;;;;4944146;28;97485;-65
2022/01/06 10:56:03;;;;;;;1.58;0.57;;;25.70;54.30;;;;;;4944043;28;96688;-59
2022/01/06 10:58:34;;;;;;;0.63;0.63;;;25.70;54.60;;;;;;4929816;28;97492;-60
2022/01/06 11:01:06;;;;;;;0.70;0.60;;;25.70;54.80;;;;;;4927949;28;96230;-60
2022/01/06 11:03:37;;;;;;;0.60;0.60;;;25.70;54.70;;;;;;4939927;28;97393;-66
2022/01/06 11:06:10;;;;;;;0.50;0.50;;;25.70;54.70;;;;;;4944906;28;95779;-66
2022/01/06 11:08:43;;;;;;;1.05;0.75;;;25.70;54.90;;;;;;4944897;28;96528;-66
2022/01/06 11:11:28;;;;;;;0.80;0.60;;;25.70;55.00;;;;;;4944403;28;97007;-64
2022/01/06 11:14:01;;;;;;;0.52;0.50;;;25.60;55.20;;;;;;4943877;28;96043;-65
2022/01/06 11:16:32;;;;;;;0.40;0.40;;;25.60;55.30;;;;;;4937460;28;95888;-66
2022/01/06 11:19:05;;;;;;;1.23;0.80;;;25.70;55.20;;;;;;4949220;28;95785;-65
2022/01/06 11:21:48;;;;;;;1.30;0.45;;;25.80;55.10;;;;;;4945271;28;96204;-58
2022/01/06 11:24:24;;;;;;;0.60;0.60;;;25.70;55.20;;;;;;4943126;28;96438;-66
2022/01/06 11:27:06;;;;;;;2.17;0.40;;;25.70;55.30;;;;;;4946785;28;95463;-66
2022/01/06 11:29:44;;;;;;;1.38;0.57;;;25.60;56.10;;;;;;4946419;28;97531;-65
2022/01/06 11:32:22;;;;;;;0.57;0.57;;;25.60;55.60;;;;;;4923261;28;96734;-66
2022/01/06 11:35:11;;;;;;;0.50;0.43;;;25.60;55.60;;;;;;4926534;28;96108;-57
2022/01/06 11:37:51;;;;;;;0.57;0.57;;;25.60;55.70;;;;;;4926548;28;95359;-66
2022/01/06 11:40:33;;;;;;;0.50;0.50;;;25.60;55.60;;;;;;4924850;28;95896;-66
2022/01/06 11:43:08;;;;;;;0.70;0.70;;;25.50;55.70;;;;;;4925059;28;96130;-65
2022/01/06 11:45:40;;;;;;;1.08;0.40;;;25.50;55.60;;;;;;4918168;28;96637;-66
2022/01/06 11:48:16;;;;;;;0.57;0.57;;;25.50;55.90;;;;;;4926441;28;95751;-66
2022/01/06 11:50:51;;;;;;;1.30;0.55;;;25.50;56.00;;;;;;4924639;28;96089;-65
2022/01/06 11:53:34;;;;;;;0.65;0.60;;;25.50;55.70;;;;;;4926959;28;96141;-58
2022/01/06 11:56:15;;;;;;;0.73;0.73;;;25.60;55.80;;;;;;4925421;28;95775;-66
2022/01/06 11:59:02;;;;;;;0.60;0.60;;;25.70;55.70;;;;;;4925535;28;95989;-60
2022/01/06 12:01:51;;;;;;;0.57;0.50;;;25.70;55.70;;;;;;4920912;28;99522;-66
2022/01/06 12:04:24;;;;;;;0.50;0.50;;;25.60;55.70;;;;;;4947587;28;98652;-65
2022/01/06 12:07:07;;;;;;;1.50;0.50;;;25.60;55.90;;;;;;4950175;28;95590;-65
2022/01/06 12:09:39;;;;;;;0.50;0.50;;;25.70;56.00;;;;;;4947294;28;96003;-58
2022/01/06 12:12:10;;;;;;;0.50;0.50;;;25.60;56.10;;;;;;4949995;28;96212;-66
2022/01/06 12:14:41;;;;;;;0.50;0.50;;;25.60;56.20;;;;;;4947793;28;96036;-66
2022/01/06 12:17:13;;;;;;;0.85;0.50;;;25.50;56.40;;;;;;4925669;28;96360;-66
2022/01/06 12:19:47;;;;;;;3.10;0.80;;;25.60;56.50;;;;;;4929840;28;95555;-67
2022/01/06 12:22:24;;;;;;;1.20;0.50;;;25.50;56.70;;;;;;4944560;28;96397;-60
2022/01/06 12:25:03;;;;;;;0.57;0.57;;;25.50;56.90;;;;;;4944451;28;98138;-58
2022/01/06 12:27:52;;;;;;;1.63;0.65;;;25.50;57.10;;;;;;4919656;28;95955;-66
2022/01/06 12:30:27;;;;;;;3.88;0.68;;;25.40;57.20;;;;;;4920965;28;95319;-66
2022/01/06 12:33:06;;;;;;;1.08;0.70;;;25.40;57.60;;;;;;4948649;28;96649;-67
2022/01/06 12:35:43;;;;;;;1.10;0.70;;;25.30;57.60;;;;;;4951281;28;96127;-59
2022/01/06 12:38:13;;;;;;;0.90;0.80;;;25.30;57.80;;;;;;4945633;28;95982;-67
2022/01/06 12:40:47;;;;;;;2.53;0.90;;;25.30;57.90;;;;;;4951637;28;95646;-65
2022/01/06 12:43:37;;;;;;;0.95;0.60;;;25.30;58.20;;;;;;4949322;28;95385;-65
2022/01/06 12:46:16;;;;;;;1.45;0.68;;;25.20;58.20;;;;;;4940192;28;96357;-66
2022/01/06 12:48:52;;;;;;;4.10;1.00;;;25.20;58.30;;;;;;4947409;28;95919;-60
2022/01/06 12:51:29;;;;;;;4.20;1.15;;;25.20;58.50;;;;;;4962469;28;96144;-59
2022/01/06 12:54:15;;;;;;;2.25;0.98;;;25.20;58.70;;;;;;4943881;28;95785;-66
2022/01/06 12:56:56;;;;;;;2.05;1.27;;;25.10;58.60;;;;;;4949427;28;96405;-66
2022/01/06 12:59:34;;;;;;;0.88;0.60;;;25.10;58.80;;;;;;4944001;28;96531;-63
2022/01/06 13:02:13;;;;;;;0.90;0.90;;;25.10;58.30;;;;;;4928390;28;95496;-59
2022/01/06 13:04:46;;;;;;;1.83;0.90;;;25.10;58.40;;;;;;4945474;28;95477;-65
2022/01/06 13:07:18;;;;;;;2.90;0.80;;;25.10;58.30;;;;;;4962294;28;98995;-60
2022/01/06 13:09:58;;;;;;;2.05;0.70;;;25.10;58.20;;;;;;4945834;28;95772;-63
2022/01/06 13:12:32;;;;;;;1.70;0.70;;;25.10;58.10;;;;;;4948330;28;95227;-64
2022/01/06 13:15:03;;;;;;;2.90;0.80;;;25.10;58.00;;;;;;4946350;28;95529;-65
2022/01/06 13:17:35;;;;;;;1.13;0.70;;;25.10;58.00;;;;;;4947610;28;96002;-63
2022/01/06 13:20:15;;;;;;;1.73;0.60;;;25.00;57.80;;;;;;4943212;28;95742;-60
2022/01/06 13:25:37;;;;;;;1.02;0.90;;;25.00;57.80;;;;;;4946514;28;95418;-63
2022/01/06 13:28:14;;;;;;;2.58;0.88;;;25.00;57.70;;;;;;4947867;28;96592;-63
2022/01/06 13:30:49;;;;;;;1.27;0.68;;;25.00;57.70;;;;;;4939288;28;98164;-65
2022/01/06 13:33:23;;;;;;;0.60;0.60;;;25.00;57.70;;;;;;4948080;28;95277;-58